Proctorville, Ohio
Current Conditions -  °F | °C
As of 5:51 PM on Friday 28 Nov 2014 (Local Time) from KHTS Reporting Station
Clear Clear  
Wind Chill: 31°   Ceiling: Unl
Heat Index: 31°   Visibility: 10mi
Dew Point: 18°   Wind: 0mph
Humidity: 59%   Direction: NA
Pressure: 30.24"   Gusts: NA
Location:  38.44°N, 82.38°W
Report Text: KHTS 282251Z 00000KT 10SM CLR M01/M08 A3024 RMK AO2 SLP249 T10061078
Loading
Personal Weather Stations






























Interactive Weather Map New forecast layout! Learn more

10-Day Weather Forecast

Advertisements
Track Severe Weather on mobile